createdAt,value
2022-09-12T00:00:03.529Z,15.40
2022-09-12T00:02:36.639Z,15.30
2022-09-12T00:05:08.633Z,15.30
2022-09-12T00:07:40.436Z,15.30
2022-09-12T00:10:12.154Z,15.30
2022-09-12T00:12:44.043Z,15.30
2022-09-12T00:15:15.885Z,15.20
2022-09-12T00:17:48.993Z,15.30
2022-09-12T00:20:20.730Z,15.20
2022-09-12T00:22:52.516Z,15.20
2022-09-12T00:25:24.265Z,15.20
2022-09-12T00:27:56.079Z,15.20
2022-09-12T00:30:27.836Z,15.10
2022-09-12T00:33:00.956Z,15.10
2022-09-12T00:35:32.706Z,15.10
2022-09-12T00:38:04.426Z,15.10
2022-09-12T00:40:36.366Z,15.10
2022-09-12T00:43:13.843Z,15.10
2022-09-12T00:45:45.680Z,15.10
2022-09-12T00:48:30.862Z,15.10
2022-09-12T00:51:03.022Z,15.10
2022-09-12T00:53:34.905Z,15.10
2022-09-12T00:56:07.573Z,15.10
2022-09-12T00:58:42.946Z,15.10
2022-09-12T01:01:14.815Z,15.10
2022-09-12T01:03:48.125Z,15.10
2022-09-12T01:06:24.759Z,15.10
2022-09-12T01:08:59.173Z,15.10
2022-09-12T01:11:31.468Z,15.00
2022-09-12T01:14:03.307Z,15.00
2022-09-12T01:16:36.857Z,14.90
2022-09-12T01:19:25.505Z,14.90
2022-09-12T01:22:15.243Z,14.90
2022-09-12T01:25:03.158Z,14.90
2022-09-12T01:27:56.148Z,14.80
2022-09-12T01:30:44.518Z,14.80
2022-09-12T01:33:35.906Z,14.70
2022-09-12T01:36:31.300Z,14.70
2022-09-12T01:39:05.464Z,14.60
2022-09-12T01:41:49.926Z,14.60
2022-09-12T01:44:32.097Z,14.50
2022-09-12T01:47:09.354Z,14.50
2022-09-12T01:49:47.004Z,14.40
2022-09-12T01:52:25.060Z,14.40
2022-09-12T01:55:09.456Z,14.40
2022-09-12T01:57:46.041Z,14.40
2022-09-12T02:00:18.178Z,14.40
2022-09-12T02:02:55.836Z,14.40
2022-09-12T02:05:32.495Z,14.40
2022-09-12T02:08:10.163Z,14.40
2022-09-12T02:10:46.428Z,14.40
2022-09-12T02:13:24.637Z,14.40
2022-09-12T02:16:03.550Z,14.40
2022-09-12T02:18:38.876Z,14.30
2022-09-12T02:21:11.144Z,14.30
2022-09-12T02:23:48.509Z,14.30
2022-09-12T02:26:24.267Z,14.30
2022-09-12T02:29:02.129Z,14.30
2022-09-12T02:31:40.669Z,14.30
2022-09-12T02:34:30.201Z,14.30
2022-09-12T02:37:11.575Z,14.30
2022-09-12T02:39:47.912Z,14.20
2022-09-12T02:42:19.898Z,14.20
2022-09-12T02:44:53.868Z,14.20
2022-09-12T02:47:30.949Z,14.30
2022-09-12T02:50:06.735Z,14.30
2022-09-12T02:52:40.172Z,14.30
2022-09-12T02:55:12.018Z,14.20
2022-09-12T02:57:44.603Z,14.20
2022-09-12T03:00:16.829Z,14.10
2022-09-12T03:03:09.697Z,14.10
2022-09-12T03:05:53.464Z,14.10
2022-09-12T03:08:43.000Z,14.10
2022-09-12T03:11:34.213Z,14.00
2022-09-12T03:14:34.395Z,14.00
2022-09-12T03:17:16.470Z,14.00
2022-09-12T03:19:57.217Z,14.00
2022-09-12T03:22:40.093Z,14.00
2022-09-12T03:25:20.671Z,14.00
2022-09-12T03:27:59.112Z,14.00
2022-09-12T03:30:31.363Z,14.00
2022-09-12T03:33:06.194Z,14.10
2022-09-12T03:35:38.274Z,14.10
2022-09-12T03:38:14.058Z,14.10
2022-09-12T03:40:54.882Z,14.10
2022-09-12T03:43:29.878Z,14.10
2022-09-12T03:46:01.700Z,14.10
2022-09-12T03:48:33.608Z,14.00
2022-09-12T03:51:08.348Z,14.00
2022-09-12T03:53:41.510Z,14.00
2022-09-12T03:56:14.073Z,14.00
2022-09-12T03:58:46.122Z,14.00
2022-09-12T04:01:19.790Z,13.90
2022-09-12T04:03:52.815Z,13.90
2022-09-12T04:06:24.546Z,14.00
2022-09-12T04:08:58.342Z,13.80
2022-09-12T04:11:30.951Z,13.70
2022-09-12T04:14:02.764Z,13.70
2022-09-12T04:16:34.535Z,13.70
2022-09-12T04:19:06.326Z,13.60
2022-09-12T04:21:39.461Z,13.70
2022-09-12T04:24:12.516Z,13.80
2022-09-12T04:26:44.307Z,13.70
2022-09-12T04:29:16.168Z,13.60
2022-09-12T04:31:48.046Z,13.50
2022-09-12T04:34:19.805Z,13.50
2022-09-12T04:36:51.566Z,13.50
2022-09-12T04:39:24.803Z,13.50
2022-09-12T04:41:56.534Z,13.50
2022-09-12T04:44:28.758Z,13.50
2022-09-12T04:47:00.504Z,13.40
2022-09-12T04:49:32.452Z,13.30
2022-09-12T04:52:04.590Z,13.30
2022-09-12T04:54:37.938Z,13.20
2022-09-12T04:57:10.683Z,13.20
2022-09-12T04:59:42.565Z,13.20
2022-09-12T05:02:14.414Z,13.20
2022-09-12T05:04:46.875Z,13.20
2022-09-12T05:07:19.265Z,13.10
2022-09-12T05:09:53.269Z,13.10
2022-09-12T05:14:57.875Z,13.10
2022-09-12T05:17:29.700Z,13.20
2022-09-12T05:20:01.613Z,13.20
2022-09-12T05:22:33.253Z,13.10
2022-09-12T05:25:07.073Z,13.00
2022-09-12T05:27:38.712Z,13.10
2022-09-12T05:30:10.969Z,13.00
2022-09-12T05:32:42.556Z,13.00
2022-09-12T05:35:14.305Z,13.10
2022-09-12T05:37:45.933Z,13.10
2022-09-12T05:40:19.316Z,13.10
2022-09-12T05:42:50.961Z,13.10
2022-09-12T05:45:22.553Z,13.10
2022-09-12T05:47:54.332Z,13.10
2022-09-12T05:50:26.017Z,13.10
2022-09-12T05:52:57.687Z,13.10
2022-09-12T05:55:31.449Z,13.20
2022-09-12T05:58:03.057Z,13.20
2022-09-12T06:00:34.798Z,13.20
2022-09-12T06:03:06.573Z,13.20
2022-09-12T06:05:38.302Z,13.30
2022-09-12T06:08:10.057Z,13.30
2022-09-12T06:10:43.557Z,13.30
2022-09-12T06:13:15.184Z,13.30
2022-09-12T06:15:46.898Z,13.40
2022-09-12T06:18:18.725Z,13.40
2022-09-12T06:20:50.471Z,13.40
2022-09-12T06:23:22.443Z,13.50
2022-09-12T06:25:55.762Z,13.50
2022-09-12T06:28:27.876Z,13.50
2022-09-12T06:31:04.590Z,13.60
2022-09-12T06:33:38.794Z,13.60
2022-09-12T06:36:12.810Z,13.70
2022-09-12T06:38:46.382Z,13.70
2022-09-12T06:41:19.642Z,13.70
2022-09-12T06:43:52.033Z,13.80
2022-09-12T06:46:24.365Z,13.80
2022-09-12T06:48:56.360Z,13.90
2022-09-12T06:51:28.966Z,13.90
2022-09-12T06:54:00.982Z,14.00
2022-09-12T06:56:34.187Z,14.10
2022-09-12T06:59:06.669Z,14.10
2022-09-12T07:01:40.165Z,14.20
2022-09-12T07:04:12.097Z,14.20
2022-09-12T07:06:44.930Z,14.30
2022-09-12T07:09:17.007Z,14.30
2022-09-12T07:11:50.056Z,14.40
2022-09-12T07:14:21.933Z,14.40
2022-09-12T07:16:53.751Z,14.50
2022-09-12T07:19:25.585Z,14.50
2022-09-12T07:21:58.758Z,14.60
2022-09-12T07:24:30.691Z,14.60
2022-09-12T07:27:04.059Z,14.70
2022-09-12T07:29:37.418Z,14.80
2022-09-12T07:32:09.810Z,14.80
2022-09-12T07:34:41.631Z,14.90
2022-09-12T07:37:13.623Z,15.00
2022-09-12T07:59:09.212Z,15.50
2022-09-12T08:01:41.599Z,15.60
2022-09-12T08:04:13.469Z,15.60
2022-09-12T08:06:45.219Z,15.70
2022-09-12T08:09:17.503Z,15.80
2022-09-12T08:11:49.218Z,15.80
2022-09-12T08:14:22.566Z,15.90
2022-09-12T08:16:54.301Z,16.00
2022-09-12T08:19:26.215Z,16.00
2022-09-12T08:21:58.115Z,16.10
2022-09-12T08:24:29.893Z,16.10
2022-09-12T08:27:01.671Z,16.20
2022-09-12T08:29:34.812Z,16.30
2022-09-12T08:32:06.730Z,16.30
2022-09-12T08:34:38.499Z,16.40
2022-09-12T08:37:10.261Z,16.50
2022-09-12T08:39:42.109Z,16.50
2022-09-12T08:42:24.728Z,16.60
2022-09-12T08:45:09.303Z,16.70
2022-09-12T08:47:44.522Z,16.70
2022-09-12T08:50:18.988Z,16.80
2022-09-12T08:52:58.430Z,16.90
2022-09-12T08:55:33.343Z,17.00
2022-09-12T08:58:12.985Z,17.10
2022-09-12T09:00:55.789Z,17.10
2022-09-12T09:03:47.891Z,17.30
2022-09-12T09:06:39.897Z,17.40
2022-09-12T09:09:20.031Z,17.50
2022-09-12T09:12:04.355Z,17.60
2022-09-12T09:15:09.946Z,17.70
2022-09-12T09:17:45.283Z,17.80
2022-09-12T09:20:28.495Z,17.90
2022-09-12T09:23:06.177Z,18.00
2022-09-12T09:25:44.102Z,18.10
2022-09-12T09:28:20.156Z,18.20
2022-09-12T09:30:52.780Z,18.30
2022-09-12T09:33:30.914Z,18.40
2022-09-12T09:36:14.761Z,18.60
2022-09-12T09:38:49.922Z,18.70
2022-09-12T09:41:42.177Z,18.80
2022-09-12T09:44:14.110Z,18.90
2022-09-12T09:46:54.350Z,19.00
2022-09-12T09:49:30.259Z,19.10
2022-09-12T09:52:04.768Z,19.20
2022-09-12T09:54:40.136Z,19.30
2022-09-12T09:57:44.568Z,19.40
2022-09-12T10:00:30.428Z,19.50
2022-09-12T10:03:24.229Z,19.60
2022-09-12T10:06:00.245Z,19.80
2022-09-12T10:08:35.244Z,19.80
2022-09-12T10:11:17.584Z,20.00
2022-09-12T10:13:56.783Z,20.10
2022-09-12T10:16:30.564Z,20.20
2022-09-12T10:19:04.145Z,20.30
2022-09-12T10:21:45.804Z,20.40
2022-09-12T10:24:24.290Z,20.50
2022-09-12T10:26:58.090Z,20.70
2022-09-12T10:29:33.447Z,20.70
2022-09-12T10:32:08.771Z,20.90
2022-09-12T10:34:44.575Z,21.00
2022-09-12T10:37:25.298Z,21.10
2022-09-12T10:39:59.244Z,21.20
2022-09-12T10:42:47.546Z,21.30
2022-09-12T10:45:22.731Z,21.40
2022-09-12T10:47:55.645Z,21.60
2022-09-12T10:50:31.000Z,21.70
2022-09-12T10:53:19.409Z,21.80
2022-09-12T10:56:02.893Z,21.90
2022-09-12T10:58:39.733Z,22.00
2022-09-12T11:01:21.401Z,22.00
2022-09-12T11:04:09.915Z,22.10
2022-09-12T11:07:02.239Z,22.20
2022-09-12T11:09:46.110Z,22.30
2022-09-12T11:12:25.169Z,22.40
2022-09-12T11:15:12.121Z,22.60
2022-09-12T11:17:51.996Z,22.70
2022-09-12T11:20:38.816Z,22.80
2022-09-12T11:23:55.963Z,22.80
2022-09-12T11:26:42.193Z,23.00
2022-09-12T11:29:20.953Z,23.00
2022-09-12T11:32:25.963Z,23.20
2022-09-12T11:35:04.907Z,23.30
2022-09-12T11:38:11.350Z,23.40
2022-09-12T11:40:46.431Z,23.50
2022-09-12T11:43:29.705Z,23.80
2022-09-12T11:46:09.549Z,24.20
2022-09-12T11:48:47.952Z,24.70
2022-09-12T11:51:25.802Z,25.30
2022-09-12T11:54:09.518Z,26.00
2022-09-12T11:56:45.493Z,26.60
2022-09-12T11:59:29.866Z,27.30
2022-09-12T12:02:03.583Z,28.10
2022-09-12T12:04:41.381Z,28.80
2022-09-12T12:07:13.138Z,29.60
2022-09-12T12:09:49.199Z,30.40
2022-09-12T12:12:25.203Z,31.10
2022-09-12T12:14:59.558Z,31.80
2022-09-12T12:17:32.955Z,32.40
2022-09-12T12:20:08.677Z,32.90
2022-09-12T12:22:52.076Z,33.50
2022-09-12T12:25:29.698Z,34.00
2022-09-12T12:28:02.398Z,34.40
2022-09-12T12:31:02.848Z,34.90
2022-09-12T12:34:00.341Z,35.30
2022-09-12T12:36:36.868Z,35.80
2022-09-12T12:39:51.823Z,36.20
2022-09-12T12:42:59.963Z,36.50
2022-09-12T12:46:11.100Z,36.80
2022-09-12T12:48:55.933Z,37.10
2022-09-12T12:51:48.703Z,37.40
2022-09-12T12:54:50.219Z,37.70
2022-09-12T12:57:32.082Z,37.90
2022-09-12T13:00:06.928Z,38.20
2022-09-12T13:02:51.854Z,38.30
2022-09-12T13:05:25.990Z,38.50
2022-09-12T13:08:02.831Z,38.60
2022-09-12T13:10:35.029Z,38.50
2022-09-12T13:13:08.624Z,38.50
2022-09-12T13:15:51.666Z,38.60
2022-09-12T13:18:30.908Z,38.70
2022-09-12T13:21:09.998Z,38.90
2022-09-12T13:23:42.162Z,39.10
2022-09-12T13:26:27.678Z,39.40
2022-09-12T13:29:15.025Z,39.50
2022-09-12T13:31:50.813Z,39.80
2022-09-12T13:34:27.103Z,39.90
2022-09-12T13:37:21.982Z,40.10
2022-09-12T13:39:59.716Z,40.30
2022-09-12T13:42:40.248Z,40.50
2022-09-12T13:45:15.338Z,40.50
2022-09-12T13:47:50.080Z,40.50
2022-09-12T13:50:24.851Z,40.40
2022-09-12T13:52:59.370Z,40.30
2022-09-12T13:55:33.367Z,40.20
2022-09-12T13:58:06.856Z,40.20
2022-09-12T14:00:38.650Z,40.20
2022-09-12T14:03:45.428Z,40.30
2022-09-12T14:06:19.032Z,40.20
2022-09-12T14:08:51.919Z,39.90
2022-09-12T14:11:27.817Z,39.80
2022-09-12T14:14:04.318Z,39.70
2022-09-12T14:16:40.259Z,39.50
2022-09-12T14:19:12.738Z,39.20
2022-09-12T14:21:45.947Z,38.80
2022-09-12T14:24:17.806Z,38.50
2022-09-12T14:26:50.938Z,38.00
2022-09-12T14:29:25.154Z,37.50
2022-09-12T14:32:05.790Z,37.10
2022-09-12T14:34:37.675Z,36.70
2022-09-12T14:37:12.747Z,36.40
2022-09-12T14:39:45.570Z,36.30
2022-09-12T14:42:22.038Z,36.30
2022-09-12T14:44:58.276Z,36.40
2022-09-12T14:47:38.561Z,36.40
2022-09-12T14:50:17.107Z,36.40
2022-09-12T14:53:03.846Z,36.30
2022-09-12T14:55:43.110Z,36.20
2022-09-12T14:58:22.470Z,36.00
2022-09-12T15:00:56.834Z,35.70
2022-09-12T15:03:31.568Z,35.60
2022-09-12T15:06:05.172Z,35.50
2022-09-12T15:08:38.475Z,35.40
2022-09-12T15:11:10.213Z,35.30
2022-09-12T15:13:42.605Z,35.20
2022-09-12T15:16:14.675Z,35.00
2022-09-12T15:18:46.833Z,34.80
2022-09-12T15:21:20.457Z,34.50
2022-09-12T15:23:53.843Z,34.30
2022-09-12T15:26:30.459Z,34.10
2022-09-12T15:29:03.182Z,33.80
2022-09-12T15:31:35.081Z,33.60
2022-09-12T15:34:06.842Z,33.40
2022-09-12T15:36:38.861Z,33.20
2022-09-12T15:39:12.258Z,33.10
2022-09-12T15:41:44.053Z,32.90
2022-09-12T15:44:15.881Z,32.90
2022-09-12T15:46:47.711Z,32.90
2022-09-12T15:49:19.507Z,32.80
2022-09-12T15:51:51.277Z,32.70
2022-09-12T15:54:24.352Z,32.60
2022-09-12T15:56:56.091Z,32.50
2022-09-12T15:59:27.877Z,32.40
2022-09-12T16:01:59.828Z,32.30
2022-09-12T16:04:31.855Z,32.20
2022-09-12T16:07:04.057Z,32.10
2022-09-12T16:09:37.556Z,32.00
2022-09-12T16:12:09.941Z,31.90
2022-09-12T16:14:41.736Z,31.70
2022-09-12T16:17:13.649Z,31.60
2022-09-12T16:19:45.465Z,31.50
2022-09-12T16:22:17.299Z,31.40
2022-09-12T16:24:50.378Z,31.20
2022-09-12T16:27:22.261Z,31.10
2022-09-12T16:29:54.025Z,31.00
2022-09-12T16:32:25.820Z,30.80
2022-09-12T16:34:57.889Z,30.70
2022-09-12T16:37:30.895Z,30.60
2022-09-12T16:40:04.988Z,30.50
2022-09-12T16:42:39.621Z,30.40
2022-09-12T16:45:13.999Z,30.30
2022-09-12T16:47:45.920Z,30.20
2022-09-12T16:50:17.757Z,30.00
2022-09-12T16:52:49.507Z,29.90
2022-09-12T16:55:22.619Z,29.80
2022-09-12T16:57:54.835Z,29.70
2022-09-12T17:00:26.571Z,29.60
2022-09-12T17:02:59.283Z,29.50
2022-09-12T17:05:31.139Z,29.30
2022-09-12T17:08:03.157Z,29.10
2022-09-12T17:10:40.298Z,28.90
2022-09-12T17:13:12.082Z,28.70
2022-09-12T17:15:43.824Z,28.50
2022-09-12T17:18:15.583Z,28.30
2022-09-12T17:20:47.375Z,28.10
2022-09-12T17:23:19.163Z,27.90
2022-09-12T17:25:52.451Z,27.80
2022-09-12T17:28:24.297Z,27.50
2022-09-12T17:30:57.055Z,27.30
2022-09-12T17:33:29.895Z,27.20
2022-09-12T17:36:02.847Z,27.00
2022-09-12T17:38:36.481Z,26.80
2022-09-12T17:41:17.519Z,26.70
2022-09-12T17:43:52.238Z,26.60
2022-09-12T17:46:25.933Z,26.40
2022-09-12T17:48:58.869Z,26.20
2022-09-12T17:51:31.413Z,26.10
2022-09-12T17:54:05.518Z,25.90
2022-09-12T17:56:39.157Z,25.80
2022-09-12T17:59:14.511Z,25.60
2022-09-12T18:02:05.696Z,25.50
2022-09-12T18:04:37.645Z,25.30
2022-09-12T18:07:09.458Z,25.20
2022-09-12T18:09:44.548Z,25.30
2022-09-12T18:12:19.979Z,25.40
2022-09-12T18:14:51.782Z,25.60
2022-09-12T18:17:23.603Z,25.70
2022-09-12T18:19:55.408Z,25.90
2022-09-12T18:22:27.164Z,26.00
2022-09-12T18:24:59.232Z,26.10
2022-09-12T18:27:32.345Z,26.20
2022-09-12T18:30:20.524Z,26.30
2022-09-12T18:32:53.195Z,26.40
2022-09-12T18:35:25.464Z,26.40
2022-09-12T18:37:57.290Z,26.40
2022-09-12T18:40:29.054Z,26.40
2022-09-12T18:43:02.170Z,26.40
2022-09-12T18:45:34.681Z,26.40
2022-09-12T18:48:06.548Z,26.40
2022-09-12T18:50:38.319Z,26.30
2022-09-12T18:53:10.058Z,26.30
2022-09-12T18:55:42.348Z,26.20
2022-09-12T18:58:15.423Z,26.10
2022-09-12T19:00:49.135Z,26.10
2022-09-12T19:03:20.910Z,26.10
2022-09-12T19:05:53.293Z,26.10
2022-09-12T19:08:25.148Z,26.00
2022-09-12T19:10:57.460Z,26.00
2022-09-12T19:13:31.065Z,25.90
2022-09-12T19:16:04.113Z,25.80
2022-09-12T19:18:37.016Z,25.70
2022-09-12T19:21:13.708Z,25.50
2022-09-12T19:23:45.818Z,25.40
2022-09-12T19:26:19.074Z,25.40
2022-09-12T19:28:53.331Z,25.40
2022-09-12T19:31:26.063Z,25.30
2022-09-12T19:34:00.433Z,25.40
2022-09-12T19:36:48.347Z,25.40
2022-09-12T19:39:20.198Z,25.30
2022-09-12T19:41:52.005Z,25.30
2022-09-12T19:44:27.521Z,25.30
2022-09-12T19:46:59.294Z,25.30
2022-09-12T19:49:31.066Z,25.20
2022-09-12T19:52:03.493Z,25.20
2022-09-12T19:54:35.534Z,25.10
2022-09-12T19:57:07.336Z,25.10
2022-09-12T19:59:40.468Z,25.10
2022-09-12T20:02:12.343Z,25.00
2022-09-12T20:04:44.322Z,24.90
2022-09-12T20:07:16.243Z,24.80
2022-09-12T20:09:48.039Z,24.70
2022-09-12T20:12:19.815Z,24.60
2022-09-12T20:14:53.034Z,24.50
2022-09-12T20:17:24.798Z,24.50
2022-09-12T20:19:57.125Z,24.40
2022-09-12T20:22:29.418Z,24.30
2022-09-12T20:25:01.215Z,24.20
2022-09-12T20:27:32.970Z,24.20
2022-09-12T20:30:07.504Z,24.10
2022-09-12T20:32:39.294Z,24.10
2022-09-12T20:35:11.576Z,24.00
2022-09-12T20:37:43.761Z,23.90
2022-09-12T20:40:15.695Z,23.90
2022-09-12T20:42:47.492Z,23.80
2022-09-12T20:45:20.680Z,23.80
2022-09-12T20:47:52.429Z,23.80
2022-09-12T20:50:24.153Z,23.80
2022-09-12T20:52:55.921Z,23.80
2022-09-12T20:55:27.829Z,23.80
2022-09-12T20:57:59.580Z,23.80
2022-09-12T21:00:33.045Z,23.70
2022-09-12T21:03:05.195Z,23.70
2022-09-12T21:05:37.609Z,23.70
2022-09-12T21:08:09.899Z,23.60
2022-09-12T21:10:42.223Z,23.30
2022-09-12T21:13:14.351Z,23.00
2022-09-12T21:15:47.441Z,22.60
2022-09-12T21:18:19.233Z,22.30
2022-09-12T21:20:51.769Z,22.00
2022-09-12T21:23:24.891Z,21.70
2022-09-12T21:25:58.335Z,21.40
2022-09-12T21:28:30.933Z,21.10
2022-09-12T21:31:04.372Z,20.90
2022-09-12T21:33:36.016Z,20.60
2022-09-12T21:36:09.471Z,20.40
2022-09-12T21:38:41.124Z,20.20
2022-09-12T21:41:15.139Z,20.00
2022-09-12T21:43:46.888Z,19.80
2022-09-12T21:46:20.061Z,19.60
2022-09-12T21:48:51.852Z,19.40
2022-09-12T21:51:23.635Z,19.30
2022-09-12T21:53:55.337Z,19.20
2022-09-12T21:56:27.144Z,19.00
2022-09-12T21:58:58.913Z,18.90
2022-09-12T22:01:32.040Z,18.80
2022-09-12T22:04:03.845Z,18.70
2022-09-12T22:06:35.702Z,18.50
2022-09-12T22:09:07.431Z,18.50
2022-09-12T22:11:39.290Z,18.30
2022-09-12T22:14:11.070Z,18.30
2022-09-12T22:16:44.326Z,18.20
2022-09-12T22:19:16.156Z,18.10
2022-09-12T22:22:06.622Z,18.00
2022-09-12T22:24:38.432Z,18.00
2022-09-12T22:27:10.205Z,17.90
2022-09-12T22:29:42.565Z,17.90
2022-09-12T22:32:15.943Z,17.80
2022-09-12T22:34:47.604Z,17.80
2022-09-12T22:37:19.606Z,17.80
2022-09-12T22:39:51.402Z,17.70
2022-09-12T22:42:23.667Z,17.70
2022-09-12T22:44:55.456Z,17.70
2022-09-12T22:47:28.573Z,17.60
2022-09-12T22:50:00.325Z,17.60
2022-09-12T22:52:32.054Z,17.60
2022-09-12T22:55:04.210Z,17.50
2022-09-12T22:57:36.022Z,17.50
2022-09-12T23:00:12.135Z,17.50
2022-09-12T23:02:45.228Z,17.50
2022-09-12T23:05:17.168Z,17.40
2022-09-12T23:07:50.206Z,17.40
2022-09-12T23:10:22.049Z,17.40
2022-09-12T23:12:55.389Z,17.40
2022-09-12T23:15:28.153Z,17.30
2022-09-12T23:18:01.271Z,17.30
2022-09-12T23:20:33.047Z,17.30
2022-09-12T23:23:04.816Z,17.20
2022-09-12T23:25:36.972Z,17.20
2022-09-12T23:28:08.736Z,17.20
2022-09-12T23:30:40.508Z,17.10
2022-09-12T23:33:13.616Z,17.10
2022-09-12T23:35:45.352Z,17.10
2022-09-12T23:38:17.087Z,17.10
2022-09-12T23:40:48.827Z,17.10
2022-09-12T23:43:20.651Z,17.10
2022-09-12T23:45:52.424Z,17.10
2022-09-12T23:48:26.182Z,17.10
2022-09-12T23:50:57.964Z,17.10
2022-09-12T23:53:29.719Z,17.00
2022-09-12T23:56:02.289Z,17.00
2022-09-12T23:58:34.094Z,17.00
